Terminal Aerodrome Forecast
Issued by NWS

Home | Current Version | Previous Version | Text Only | Print | Product List | Glossary On
Versions: 1 2 3 4 5 6 7 8 9 10 11 12 13 14 15 16 17 18 19
000
FTUS43 KMPX 250300 AAA
TAFAXN
TAF AMD
KAXN 250301Z 2503/2524 24003KT P6SM SCT020
     FM250600 28002KT 5SM BR SCT020
      TEMPO 2508/2512 2SM BR BKN010
     FM251400 30010KT P6SM BKN070
     FM251800 34011KT P6SM SCT100=

USA.gov is the U.S. government's official web portal to all federal, state and local government web resources and services.